KOQT METAR and TAF weather

Enter ICAO airport designator
Station Type Date Time Source
KOQT METAR 2018/10/16 13:53 UTC NOAA

KOQT 161353Z AUTO 00000KT 10SM OVC065 14/13 A3025 RMK AO2 SLP238 T01390128


Station Type Date Time Source
KOQT Decoded METAR 2018/10/16 13:53 UTC NOAA

OAK RIDGE, TN, United States (KOQT) 36-01N 84-14W
Oct 16, 2018 - 09:53 AM EDT / 2018.10.16 1353 UTC
Wind: Calm:0
Visibility: 10 mile(s):0
Sky conditions: overcast
Temperature: 57.0 F (13.9 C)
Dew Point: 55.0 F (12.8 C)
Relative Humidity: 93%
Pressure (altimeter): 30.25 in. Hg (1024 hPa)
ob: KOQT 161353Z AUTO 00000KT 10SM OVC065 14/13 A3025 RMK AO2 SLP238 T01390128
cycle: 14

Station Type Date Time Source
KOQT TAF UTC NOAA

Error!


Example: see airport list